Language selection

Features

My Weather Profile Weather Topics  | 

Dixon Entrance East: Past 24 Hour Conditions

 

Kindakun Rocks

04:00 AM PST 16 December 2019
Disclaimer

This table is a summary of hourly weather conditions for the past 24 hours.
Please note that these observations might not always be representative of weather conditions over their associated marine area.

Date / Time
(PST)
Wind(knots) Conditions Visibility(km) Pressure(kPa) Air tempC) Relative humidity(%) Dew pointC)
16 December 2019
4:00 SSE 6 N/A N/A 100.7 9 96 8
3:00 SSE 6 N/A N/A 100.6 9 96 8
2:00 SSW 9 N/A N/A 100.6 9 96 9
1:00 S 14 gust 19 N/A N/A 100.5 9 97 9
0:00 SSE 25 gust 32 N/A N/A 100.4 9 95 9
15 December 2019
23:00 SSE 31 gust 36 N/A N/A 100.4 10 94 9
22:00 SSE 32 gust 38 N/A N/A 100.4 10 94 9
21:00 SE 26 gust 31 N/A N/A 100.4 9 90 7
20:00 SE 23 gust 28 N/A N/A 100.5 9 83 6
19:00 SE 19 gust 29 N/A N/A 100.5 9 78 5
18:00 SE 20 gust 28 N/A N/A 100.6 9 76 5
17:00 SE 22 gust 31 N/A N/A 100.7 9 74 4
16:00 SE 18 gust 28 N/A N/A 100.8 9 74 4
15:00 SE 21 gust 28 N/A N/A 100.9 9 70 4
14:00 ESE 19 gust 25 N/A N/A 100.9 9 70 3
13:00 SE 21 gust 28 N/A N/A 101.0 8 68 3
12:00 SE 17 N/A N/A 101.1 8 69 3
11:00 E 13 gust 19 N/A N/A 101.2 8 66 2
10:00 SSE 15 gust 24 N/A N/A 101.2 7 74 3
9:00 E 14 gust 19 N/A N/A 101.2 8 69 2
8:00 E 5 N/A N/A 101.3 5 76 1
7:00 ESE 10 gust 15 N/A N/A 101.3 6 75 2
6:00 E 6 N/A N/A 101.4 6 75 2
5:00 ESE 8 gust 15 N/A N/A 101.4 6 72 2
4:00 ESE 12 gust 17 N/A N/A 101.4 7 70 2

Zoom-in to make a selection

Map of Pacific - North Coast marine weather areas Middle Nomad - 46004 South Nomad - 46036 Dixon Entrance Central - 46145 South Moresby - 46147 Nanakwa Shoal - 46181 North Hecate Strait - 46183 North Nomad - 46184 South Hecate Strait - 46185 West Sea Otter - 46204 West Dixon Entrance - 46205 East Dellwood - 46207 West Moresby - 46208 Sartine Island Cape St.James Kindakun Rocks Langara Island Masset Municipal Airport Rose Spit Sandspit Airport Bella Bella Airport Bella Coola Airport Bonilla Island Cathedral Point Cumshewa Island Grey Islet Holland Rock Lucy Islands Lightstation Prince Rupert Airport
Legend:
buoy Buoy
land station Land Station

Pacific - North Coast Area

Another Region

What we are doing

Date modified: